sensor_id;sensor_type;location;lat;lon;timestamp;temperature;humidity
4910;DHT22;2470;49.868;8.660;2023-04-02T00:00:29;10.70;99.90
4910;DHT22;2470;49.868;8.660;2023-04-02T00:08:01;10.60;99.90
4910;DHT22;2470;49.868;8.660;2023-04-02T00:10:37;10.50;99.90
4910;DHT22;2470;49.868;8.660;2023-04-02T00:15:34;10.50;99.90
4910;DHT22;2470;49.868;8.660;2023-04-02T00:18:00;10.50;99.90
4910;DHT22;2470;49.868;8.660;2023-04-02T00:20:27;10.50;99.90
4910;DHT22;2470;49.868;8.660;2023-04-02T00:22:54;10.50;99.90
4910;DHT22;2470;49.868;8.660;2023-04-02T00:25:21;10.50;99.90
4910;DHT22;2470;49.868;8.660;2023-04-02T00:27:51;10.50;99.90
4910;DHT22;2470;49.868;8.660;2023-04-02T00:30:16;10.50;99.90
4910;DHT22;2470;49.868;8.660;2023-04-02T00:32:42;10.50;99.90
4910;DHT22;2470;49.868;8.660;2023-04-02T00:35:24;10.50;99.90
4910;DHT22;2470;49.868;8.660;2023-04-02T00:37:50;10.50;99.90
4910;DHT22;2470;49.868;8.660;2023-04-02T00:40:27;10.50;99.90
4910;DHT22;2470;49.868;8.660;2023-04-02T00:42:57;10.50;99.90
4910;DHT22;2470;49.868;8.660;2023-04-02T00:45:27;10.50;99.90
4910;DHT22;2470;49.868;8.660;2023-04-02T00:47:55;10.50;99.90
4910;DHT22;2470;49.868;8.660;2023-04-02T00:50:29;10.50;99.90
4910;DHT22;2470;49.868;8.660;2023-04-02T00:52:57;10.50;99.90
4910;DHT22;2470;49.868;8.660;2023-04-02T00:55:35;10.50;99.90
4910;DHT22;2470;49.868;8.660;2023-04-02T00:58:04;10.60;99.90
4910;DHT22;2470;49.868;8.660;2023-04-02T01:00:37;10.70;99.90
4910;DHT22;2470;49.868;8.660;2023-04-02T01:05:41;10.50;99.90
4910;DHT22;2470;49.868;8.660;2023-04-02T01:14:11;10.40;99.90
4910;DHT22;2470;49.868;8.660;2023-04-02T01:17:03;10.40;99.90
4910;DHT22;2470;49.868;8.660;2023-04-02T01:22:27;10.50;99.90
4910;DHT22;2470;49.868;8.660;2023-04-02T01:24:59;10.50;99.90
4910;DHT22;2470;49.868;8.660;2023-04-02T01:27:31;10.50;99.90
4910;DHT22;2470;49.868;8.660;2023-04-02T01:30:00;10.60;99.90
4910;DHT22;2470;49.868;8.660;2023-04-02T01:32:29;10.60;99.90
4910;DHT22;2470;49.868;8.660;2023-04-02T01:34:55;10.60;99.90
4910;DHT22;2470;49.868;8.660;2023-04-02T01:45:15;10.60;99.90
4910;DHT22;2470;49.868;8.660;2023-04-02T01:47:42;10.60;99.90
4910;DHT22;2470;49.868;8.660;2023-04-02T01:52:45;10.60;99.90
4910;DHT22;2470;49.868;8.660;2023-04-02T01:55:12;10.60;99.90
4910;DHT22;2470;49.868;8.660;2023-04-02T01:57:43;10.60;99.90
4910;DHT22;2470;49.868;8.660;2023-04-02T02:00:13;10.60;99.90
4910;DHT22;2470;49.868;8.660;2023-04-02T02:02:40;10.60;99.90
4910;DHT22;2470;49.868;8.660;2023-04-02T02:05:12;10.60;99.90
4910;DHT22;2470;49.868;8.660;2023-04-02T02:07:38;10.50;99.90
4910;DHT22;2470;49.868;8.660;2023-04-02T02:10:06;10.50;99.90
4910;DHT22;2470;49.868;8.660;2023-04-02T02:12:32;10.50;99.90
4910;DHT22;2470;49.868;8.660;2023-04-02T02:14:57;10.50;99.90
4910;DHT22;2470;49.868;8.660;2023-04-02T02:17:28;10.50;99.90
4910;DHT22;2470;49.868;8.660;2023-04-02T02:19:57;10.50;99.90
4910;DHT22;2470;49.868;8.660;2023-04-02T02:22:31;10.50;99.90
4910;DHT22;2470;49.868;8.660;2023-04-02T02:24:59;10.50;99.90
4910;DHT22;2470;49.868;8.660;2023-04-02T02:29:59;10.50;99.90
4910;DHT22;2470;49.868;8.660;2023-04-02T02:32:29;10.50;99.90
4910;DHT22;2470;49.868;8.660;2023-04-02T02:37:30;10.40;99.90
4910;DHT22;2470;49.868;8.660;2023-04-02T02:39:59;10.40;99.90
4910;DHT22;2470;49.868;8.660;2023-04-02T02:42:37;10.50;99.90
4910;DHT22;2470;49.868;8.660;2023-04-02T02:45:05;10.50;99.90
4910;DHT22;2470;49.868;8.660;2023-04-02T02:47:37;10.50;99.90
4910;DHT22;2470;49.868;8.660;2023-04-02T02:50:07;10.50;99.90
4910;DHT22;2470;49.868;8.660;2023-04-02T02:52:38;10.50;99.90
4910;DHT22;2470;49.868;8.660;2023-04-02T02:55:10;10.60;99.90
4910;DHT22;2470;49.868;8.660;2023-04-02T02:57:46;10.60;99.90
4910;DHT22;2470;49.868;8.660;2023-04-02T03:00:13;10.60;99.90
4910;DHT22;2470;49.868;8.660;2023-04-02T03:02:41;10.50;99.90
4910;DHT22;2470;49.868;8.660;2023-04-02T03:05:08;10.50;99.90
4910;DHT22;2470;49.868;8.660;2023-04-02T03:07:34;10.50;99.90
4910;DHT22;2470;49.868;8.660;2023-04-02T03:10:16;10.50;99.90
4910;DHT22;2470;49.868;8.660;2023-04-02T03:15:34;10.60;99.90
4910;DHT22;2470;49.868;8.660;2023-04-02T03:18:10;10.60;99.90
4910;DHT22;2470;49.868;8.660;2023-04-02T03:20:46;10.50;99.90
4910;DHT22;2470;49.868;8.660;2023-04-02T03:23:26;10.60;99.90
4910;DHT22;2470;49.868;8.660;2023-04-02T03:26:00;10.60;99.90
4910;DHT22;2470;49.868;8.660;2023-04-02T03:28:31;10.60;99.90
4910;DHT22;2470;49.868;8.660;2023-04-02T03:31:40;10.60;99.90
4910;DHT22;2470;49.868;8.660;2023-04-02T03:33:55;10.50;99.90
4910;DHT22;2470;49.868;8.660;2023-04-02T03:36:41;10.50;99.90
4910;DHT22;2470;49.868;8.660;2023-04-02T03:39:17;10.50;99.90
4910;DHT22;2470;49.868;8.660;2023-04-02T03:41:54;10.40;99.90
4910;DHT22;2470;49.868;8.660;2023-04-02T03:46:57;10.40;99.90
4910;DHT22;2470;49.868;8.660;2023-04-02T03:49:44;10.40;99.90
4910;DHT22;2470;49.868;8.660;2023-04-02T03:52:22;10.40;99.90
4910;DHT22;2470;49.868;8.660;2023-04-02T03:54:49;10.40;99.90
4910;DHT22;2470;49.868;8.660;2023-04-02T03:57:26;10.60;99.90
4910;DHT22;2470;49.868;8.660;2023-04-02T04:00:07;10.40;99.90
4910;DHT22;2470;49.868;8.660;2023-04-02T04:02:50;10.40;99.90
4910;DHT22;2470;49.868;8.660;2023-04-02T04:05:34;10.40;99.90
4910;DHT22;2470;49.868;8.660;2023-04-02T04:08:15;10.40;99.90
4910;DHT22;2470;49.868;8.660;2023-04-02T04:10:42;10.40;99.90
4910;DHT22;2470;49.868;8.660;2023-04-02T04:13:12;10.40;99.90
4910;DHT22;2470;49.868;8.660;2023-04-02T04:18:31;10.50;99.90
4910;DHT22;2470;49.868;8.660;2023-04-02T04:21:14;10.40;99.90
4910;DHT22;2470;49.868;8.660;2023-04-02T04:23:46;10.40;99.90
4910;DHT22;2470;49.868;8.660;2023-04-02T04:26:23;10.30;99.90
4910;DHT22;2470;49.868;8.660;2023-04-02T04:31:50;10.30;99.90
4910;DHT22;2470;49.868;8.660;2023-04-02T04:34:28;10.30;99.90
4910;DHT22;2470;49.868;8.660;2023-04-02T04:36:58;10.30;99.90
4910;DHT22;2470;49.868;8.660;2023-04-02T04:39:41;10.20;99.90
4910;DHT22;2470;49.868;8.660;2023-04-02T04:42:13;10.40;99.90
4910;DHT22;2470;49.868;8.660;2023-04-02T04:45:07;10.30;99.90
4910;DHT22;2470;49.868;8.660;2023-04-02T04:47:45;10.40;99.90
4910;DHT22;2470;49.868;8.660;2023-04-02T04:50:31;10.40;99.90
4910;DHT22;2470;49.868;8.660;2023-04-02T04:53:07;10.40;99.90
4910;DHT22;2470;49.868;8.660;2023-04-02T04:55:42;10.40;99.90
4910;DHT22;2470;49.868;8.660;2023-04-02T04:58:41;10.40;99.90
4910;DHT22;2470;49.868;8.660;2023-04-02T05:01:22;10.40;99.90
4910;DHT22;2470;49.868;8.660;2023-04-02T05:04:03;10.40;99.90
4910;DHT22;2470;49.868;8.660;2023-04-02T05:06:39;10.30;99.90
4910;DHT22;2470;49.868;8.660;2023-04-02T05:12:02;10.40;99.90
4910;DHT22;2470;49.868;8.660;2023-04-02T05:14:37;10.40;99.90
4910;DHT22;2470;49.868;8.660;2023-04-02T05:17:09;10.40;99.90
4910;DHT22;2470;49.868;8.660;2023-04-02T05:19:54;10.50;99.90
4910;DHT22;2470;49.868;8.660;2023-04-02T05:22:37;10.40;99.90
4910;DHT22;2470;49.868;8.660;2023-04-02T05:25:12;10.50;99.90
4910;DHT22;2470;49.868;8.660;2023-04-02T05:27:59;10.50;99.90
4910;DHT22;2470;49.868;8.660;2023-04-02T05:33:01;10.40;99.90
4910;DHT22;2470;49.868;8.660;2023-04-02T05:35:39;10.40;99.90
4910;DHT22;2470;49.868;8.660;2023-04-02T05:38:06;10.50;99.90
4910;DHT22;2470;49.868;8.660;2023-04-02T05:40:38;10.50;99.90
4910;DHT22;2470;49.868;8.660;2023-04-02T05:43:10;10.60;99.90
4910;DHT22;2470;49.868;8.660;2023-04-02T05:45:40;10.60;99.90
4910;DHT22;2470;49.868;8.660;2023-04-02T05:48:21;10.60;99.90
4910;DHT22;2470;49.868;8.660;2023-04-02T05:50:52;10.60;99.90
4910;DHT22;2470;49.868;8.660;2023-04-02T05:53:28;10.70;99.90
4910;DHT22;2470;49.868;8.660;2023-04-02T05:56:12;10.70;99.90
4910;DHT22;2470;49.868;8.660;2023-04-02T05:58:40;10.70;99.90
4910;DHT22;2470;49.868;8.660;2023-04-02T06:01:29;10.80;99.90
4910;DHT22;2470;49.868;8.660;2023-04-02T06:04:22;10.80;99.90
4910;DHT22;2470;49.868;8.660;2023-04-02T06:07:03;10.80;99.90
4910;DHT22;2470;49.868;8.660;2023-04-02T06:09:33;10.90;99.90
4910;DHT22;2470;49.868;8.660;2023-04-02T06:14:52;11.00;99.90
4910;DHT22;2470;49.868;8.660;2023-04-02T06:17:19;11.00;99.90
4910;DHT22;2470;49.868;8.660;2023-04-02T06:19:45;11.10;99.90
4910;DHT22;2470;49.868;8.660;2023-04-02T06:25:23;11.10;99.90
4910;DHT22;2470;49.868;8.660;2023-04-02T06:27:52;11.10;99.90
4910;DHT22;2470;49.868;8.660;2023-04-02T06:30:24;11.10;99.90
4910;DHT22;2470;49.868;8.660;2023-04-02T06:32:52;11.20;99.90
4910;DHT22;2470;49.868;8.660;2023-04-02T06:35:18;11.20;99.90
4910;DHT22;2470;49.868;8.660;2023-04-02T06:37:45;11.10;99.90
4910;DHT22;2470;49.868;8.660;2023-04-02T06:40:38;11.10;99.90
4910;DHT22;2470;49.868;8.660;2023-04-02T06:43:24;11.10;99.90
4910;DHT22;2470;49.868;8.660;2023-04-02T06:45:55;11.20;99.90
4910;DHT22;2470;49.868;8.660;2023-04-02T06:48:22;11.20;99.90
4910;DHT22;2470;49.868;8.660;2023-04-02T06:51:05;11.20;99.90
4910;DHT22;2470;49.868;8.660;2023-04-02T06:53:38;11.20;99.90
4910;DHT22;2470;49.868;8.660;2023-04-02T06:58:48;11.30;99.90
4910;DHT22;2470;49.868;8.660;2023-04-02T07:01:23;11.30;99.90
4910;DHT22;2470;49.868;8.660;2023-04-02T07:03:50;11.40;99.90
4910;DHT22;2470;49.868;8.660;2023-04-02T07:06:18;11.30;99.90
4910;DHT22;2470;49.868;8.660;2023-04-02T07:08:44;11.40;99.90
4910;DHT22;2470;49.868;8.660;2023-04-02T07:11:18;11.40;99.90
4910;DHT22;2470;49.868;8.660;2023-04-02T07:13:45;11.60;99.90
4910;DHT22;2470;49.868;8.660;2023-04-02T07:16:15;11.40;99.90
4910;DHT22;2470;49.868;8.660;2023-04-02T07:18:41;11.50;99.90
4910;DHT22;2470;49.868;8.660;2023-04-02T07:21:06;11.50;99.90
4910;DHT22;2470;49.868;8.660;2023-04-02T07:23:32;11.50;99.90
4910;DHT22;2470;49.868;8.660;2023-04-02T07:25:57;11.50;99.90
4910;DHT22;2470;49.868;8.660;2023-04-02T07:28:24;11.50;99.90
4910;DHT22;2470;49.868;8.660;2023-04-02T07:30:50;11.60;99.90
4910;DHT22;2470;49.868;8.660;2023-04-02T07:33:18;11.60;99.90
4910;DHT22;2470;49.868;8.660;2023-04-02T07:35:44;11.60;99.90
4910;DHT22;2470;49.868;8.660;2023-04-02T07:38:10;11.70;99.90
4910;DHT22;2470;49.868;8.660;2023-04-02T07:40:36;11.70;99.90
4910;DHT22;2470;49.868;8.660;2023-04-02T07:43:03;11.70;99.90
4910;DHT22;2470;49.868;8.660;2023-04-02T07:45:28;11.70;99.90
4910;DHT22;2470;49.868;8.660;2023-04-02T07:47:54;11.70;99.90
4910;DHT22;2470;49.868;8.660;2023-04-02T07:50:20;11.70;99.90
4910;DHT22;2470;49.868;8.660;2023-04-02T07:52:45;11.60;99.90
4910;DHT22;2470;49.868;8.660;2023-04-02T07:55:13;11.60;99.90
4910;DHT22;2470;49.868;8.660;2023-04-02T07:57:42;11.60;99.90
4910;DHT22;2470;49.868;8.660;2023-04-02T08:00:13;11.50;99.90
4910;DHT22;2470;49.868;8.660;2023-04-02T08:02:39;11.40;99.90
4910;DHT22;2470;49.868;8.660;2023-04-02T08:05:04;11.40;99.90
4910;DHT22;2470;49.868;8.660;2023-04-02T08:07:31;11.50;99.90
4910;DHT22;2470;49.868;8.660;2023-04-02T08:09:56;11.40;99.90
4910;DHT22;2470;49.868;8.660;2023-04-02T08:12:22;11.40;99.90
4910;DHT22;2470;49.868;8.660;2023-04-02T08:14:47;11.30;99.90
4910;DHT22;2470;49.868;8.660;2023-04-02T08:17:13;11.20;99.90
4910;DHT22;2470;49.868;8.660;2023-04-02T08:19:38;11.10;99.90
4910;DHT22;2470;49.868;8.660;2023-04-02T08:22:04;11.00;99.90
4910;DHT22;2470;49.868;8.660;2023-04-02T08:24:29;10.90;99.90
4910;DHT22;2470;49.868;8.660;2023-04-02T08:26:55;10.90;99.90
4910;DHT22;2470;49.868;8.660;2023-04-02T08:29:21;10.90;99.90
4910;DHT22;2470;49.868;8.660;2023-04-02T08:31:46;10.90;99.90
4910;DHT22;2470;49.868;8.660;2023-04-02T08:34:12;11.00;99.90
4910;DHT22;2470;49.868;8.660;2023-04-02T08:36:40;11.00;99.90
4910;DHT22;2470;49.868;8.660;2023-04-02T08:39:06;11.00;99.90
4910;DHT22;2470;49.868;8.660;2023-04-02T08:41:47;10.90;99.90
4910;DHT22;2470;49.868;8.660;2023-04-02T08:44:23;10.90;99.90
4910;DHT22;2470;49.868;8.660;2023-04-02T08:46:55;11.00;99.90
4910;DHT22;2470;49.868;8.660;2023-04-02T08:49:30;11.00;99.90
4910;DHT22;2470;49.868;8.660;2023-04-02T08:51:56;11.00;99.90
4910;DHT22;2470;49.868;8.660;2023-04-02T08:54:31;11.00;99.90
4910;DHT22;2470;49.868;8.660;2023-04-02T08:57:12;10.90;99.90
4910;DHT22;2470;49.868;8.660;2023-04-02T08:59:43;10.90;99.90
4910;DHT22;2470;49.868;8.660;2023-04-02T09:04:52;10.80;99.90
4910;DHT22;2470;49.868;8.660;2023-04-02T09:07:17;10.80;99.90
4910;DHT22;2470;49.868;8.660;2023-04-02T09:09:46;10.70;99.90
4910;DHT22;2470;49.868;8.660;2023-04-02T09:12:26;10.60;99.90
4910;DHT22;2470;49.868;8.660;2023-04-02T09:15:28;10.60;99.90
4910;DHT22;2470;49.868;8.660;2023-04-02T09:18:12;10.60;99.90
4910;DHT22;2470;49.868;8.660;2023-04-02T09:20:38;10.60;99.90
4910;DHT22;2470;49.868;8.660;2023-04-02T09:23:04;10.50;99.90
4910;DHT22;2470;49.868;8.660;2023-04-02T09:25:30;10.60;99.90
4910;DHT22;2470;49.868;8.660;2023-04-02T09:28:00;10.70;99.90
4910;DHT22;2470;49.868;8.660;2023-04-02T09:30:28;10.80;99.90
4910;DHT22;2470;49.868;8.660;2023-04-02T09:33:02;10.80;99.90
4910;DHT22;2470;49.868;8.660;2023-04-02T09:35:33;10.80;99.90
4910;DHT22;2470;49.868;8.660;2023-04-02T09:41:04;10.90;99.90
4910;DHT22;2470;49.868;8.660;2023-04-02T09:43:34;11.00;99.90
4910;DHT22;2470;49.868;8.660;2023-04-02T09:46:24;11.00;99.90
4910;DHT22;2470;49.868;8.660;2023-04-02T09:48:58;11.00;99.90
4910;DHT22;2470;49.868;8.660;2023-04-02T09:51:30;11.10;99.90
4910;DHT22;2470;49.868;8.660;2023-04-02T09:56:27;11.00;99.90
4910;DHT22;2470;49.868;8.660;2023-04-02T10:10:02;10.90;99.90
4910;DHT22;2470;49.868;8.660;2023-04-02T10:12:29;11.10;99.90
4910;DHT22;2470;49.868;8.660;2023-04-02T10:14:59;11.10;99.90
4910;DHT22;2470;49.868;8.660;2023-04-02T10:17:31;11.10;99.90
4910;DHT22;2470;49.868;8.660;2023-04-02T10:20:04;11.00;99.90
4910;DHT22;2470;49.868;8.660;2023-04-02T10:22:36;11.00;99.90
4910;DHT22;2470;49.868;8.660;2023-04-02T10:25:04;10.90;99.90
4910;DHT22;2470;49.868;8.660;2023-04-02T10:33:12;10.60;99.90
4910;DHT22;2470;49.868;8.660;2023-04-02T10:38:52;10.50;99.90
4910;DHT22;2470;49.868;8.660;2023-04-02T10:44:35;10.80;99.90
4910;DHT22;2470;49.868;8.660;2023-04-02T10:49:57;10.70;99.90
4910;DHT22;2470;49.868;8.660;2023-04-02T10:52:30;10.70;99.90
4910;DHT22;2470;49.868;8.660;2023-04-02T10:55:06;10.70;99.90
4910;DHT22;2470;49.868;8.660;2023-04-02T10:57:40;10.80;99.90
4910;DHT22;2470;49.868;8.660;2023-04-02T11:05:43;10.90;99.90
4910;DHT22;2470;49.868;8.660;2023-04-02T11:08:26;10.80;99.90
4910;DHT22;2470;49.868;8.660;2023-04-02T11:11:00;10.80;99.90
4910;DHT22;2470;49.868;8.660;2023-04-02T11:13:31;10.70;99.90
4910;DHT22;2470;49.868;8.660;2023-04-02T11:16:01;10.80;99.90
4910;DHT22;2470;49.868;8.660;2023-04-02T11:18:32;10.80;99.90
4910;DHT22;2470;49.868;8.660;2023-04-02T11:23:59;10.90;99.90
4910;DHT22;2470;49.868;8.660;2023-04-02T11:26:45;11.00;99.90
4910;DHT22;2470;49.868;8.660;2023-04-02T11:31:41;11.10;99.90
4910;DHT22;2470;49.868;8.660;2023-04-02T11:37:02;10.80;99.90
4910;DHT22;2470;49.868;8.660;2023-04-02T11:39:51;10.70;99.90
4910;DHT22;2470;49.868;8.660;2023-04-02T11:44:43;10.60;99.90
4910;DHT22;2470;49.868;8.660;2023-04-02T11:52:49;10.50;99.90
4910;DHT22;2470;49.868;8.660;2023-04-02T12:11:47;10.20;99.90
4910;DHT22;2470;49.868;8.660;2023-04-02T12:14:46;10.30;99.90
4910;DHT22;2470;49.868;8.660;2023-04-02T12:17:38;10.20;99.90
4910;DHT22;2470;49.868;8.660;2023-04-02T12:20:19;10.20;99.90
4910;DHT22;2470;49.868;8.660;2023-04-02T12:22:52;10.10;99.90
4910;DHT22;2470;49.868;8.660;2023-04-02T12:25:34;10.10;99.90
4910;DHT22;2470;49.868;8.660;2023-04-02T12:30:42;10.10;99.90
4910;DHT22;2470;49.868;8.660;2023-04-02T12:35:41;10.10;99.90
4910;DHT22;2470;49.868;8.660;2023-04-02T12:41:26;10.20;99.90
4910;DHT22;2470;49.868;8.660;2023-04-02T12:44:02;10.10;99.90
4910;DHT22;2470;49.868;8.660;2023-04-02T12:46:30;10.10;99.90
4910;DHT22;2470;49.868;8.660;2023-04-02T12:49:07;10.20;99.90
4910;DHT22;2470;49.868;8.660;2023-04-02T12:51:37;10.30;99.90
4910;DHT22;2470;49.868;8.660;2023-04-02T12:54:03;10.30;99.90
4910;DHT22;2470;49.868;8.660;2023-04-02T12:56:29;10.30;99.90
4910;DHT22;2470;49.868;8.660;2023-04-02T12:58:56;10.20;99.90
4910;DHT22;2470;49.868;8.660;2023-04-02T13:01:29;10.20;99.90
4910;DHT22;2470;49.868;8.660;2023-04-02T13:04:07;10.10;99.90
4910;DHT22;2470;49.868;8.660;2023-04-02T13:06:34;10.10;99.90
4910;DHT22;2470;49.868;8.660;2023-04-02T13:09:03;10.10;99.90
4910;DHT22;2470;49.868;8.660;2023-04-02T13:11:47;10.20;99.90
4910;DHT22;2470;49.868;8.660;2023-04-02T13:14:17;10.10;99.90
4910;DHT22;2470;49.868;8.660;2023-04-02T13:16:44;10.10;99.90
4910;DHT22;2470;49.868;8.660;2023-04-02T13:21:41;10.00;99.90
4910;DHT22;2470;49.868;8.660;2023-04-02T13:24:21;10.00;99.90
4910;DHT22;2470;49.868;8.660;2023-04-02T13:26:49;10.00;99.90
4910;DHT22;2470;49.868;8.660;2023-04-02T13:29:34;10.00;99.90
4910;DHT22;2470;49.868;8.660;2023-04-02T13:32:03;9.90;99.90
4910;DHT22;2470;49.868;8.660;2023-04-02T13:34:28;9.90;99.90
4910;DHT22;2470;49.868;8.660;2023-04-02T13:36:54;9.90;99.90
4910;DHT22;2470;49.868;8.660;2023-04-02T13:39:21;9.90;99.90
4910;DHT22;2470;49.868;8.660;2023-04-02T13:41:50;10.00;99.90
4910;DHT22;2470;49.868;8.660;2023-04-02T13:44:24;9.90;99.90
4910;DHT22;2470;49.868;8.660;2023-04-02T13:46:52;9.80;99.90
4910;DHT22;2470;49.868;8.660;2023-04-02T13:49:18;9.80;99.90
4910;DHT22;2470;49.868;8.660;2023-04-02T13:51:52;9.80;99.90
4910;DHT22;2470;49.868;8.660;2023-04-02T13:54:50;9.80;99.90
4910;DHT22;2470;49.868;8.660;2023-04-02T13:57:17;9.70;99.90
4910;DHT22;2470;49.868;8.660;2023-04-02T13:59:43;9.70;99.90
4910;DHT22;2470;49.868;8.660;2023-04-02T14:02:12;9.70;99.90
4910;DHT22;2470;49.868;8.660;2023-04-02T14:04:44;9.60;99.90
4910;DHT22;2470;49.868;8.660;2023-04-02T14:10:34;9.50;99.90
4910;DHT22;2470;49.868;8.660;2023-04-02T14:16:16;9.40;99.90
4910;DHT22;2470;49.868;8.660;2023-04-02T14:24:18;9.40;99.90
4910;DHT22;2470;49.868;8.660;2023-04-02T14:29:56;9.30;99.90
4910;DHT22;2470;49.868;8.660;2023-04-02T14:32:30;9.30;99.90
4910;DHT22;2470;49.868;8.660;2023-04-02T14:40:44;9.20;99.90
4910;DHT22;2470;49.868;8.660;2023-04-02T14:43:42;9.20;99.90
4910;DHT22;2470;49.868;8.660;2023-04-02T14:46:09;9.20;99.90
4910;DHT22;2470;49.868;8.660;2023-04-02T14:48:51;9.20;99.90
4910;DHT22;2470;49.868;8.660;2023-04-02T14:51:34;9.20;99.90
4910;DHT22;2470;49.868;8.660;2023-04-02T14:56:46;9.10;99.90
4910;DHT22;2470;49.868;8.660;2023-04-02T15:02:49;9.20;99.90
4910;DHT22;2470;49.868;8.660;2023-04-02T15:04:57;9.20;99.90
4910;DHT22;2470;49.868;8.660;2023-04-02T15:07:28;9.30;99.90
4910;DHT22;2470;49.868;8.660;2023-04-02T15:10:05;9.30;99.90
4910;DHT22;2470;49.868;8.660;2023-04-02T15:12:34;9.30;99.90
4910;DHT22;2470;49.868;8.660;2023-04-02T15:17:43;9.20;99.90
4910;DHT22;2470;49.868;8.660;2023-04-02T15:20:14;9.20;99.90
4910;DHT22;2470;49.868;8.660;2023-04-02T15:22:54;9.10;99.90
4910;DHT22;2470;49.868;8.660;2023-04-02T15:25:35;9.10;99.90
4910;DHT22;2470;49.868;8.660;2023-04-02T15:28:19;9.00;99.90
4910;DHT22;2470;49.868;8.660;2023-04-02T15:30:50;9.00;99.90
4910;DHT22;2470;49.868;8.660;2023-04-02T15:33:41;9.00;99.90
4910;DHT22;2470;49.868;8.660;2023-04-02T15:39:00;8.80;99.90
4910;DHT22;2470;49.868;8.660;2023-04-02T15:41:51;8.80;99.90
4910;DHT22;2470;49.868;8.660;2023-04-02T15:44:19;8.80;99.90
4910;DHT22;2470;49.868;8.660;2023-04-02T15:47:07;8.70;99.90
4910;DHT22;2470;49.868;8.660;2023-04-02T15:49:46;8.70;99.90
4910;DHT22;2470;49.868;8.660;2023-04-02T15:52:37;8.70;99.90
4910;DHT22;2470;49.868;8.660;2023-04-02T15:55:24;8.60;99.90
4910;DHT22;2470;49.868;8.660;2023-04-02T16:00:27;8.60;99.90
4910;DHT22;2470;49.868;8.660;2023-04-02T16:03:17;8.60;99.90
4910;DHT22;2470;49.868;8.660;2023-04-02T16:05:57;8.60;99.90
4910;DHT22;2470;49.868;8.660;2023-04-02T16:11:23;8.70;99.90
4910;DHT22;2470;49.868;8.660;2023-04-02T16:13:49;8.80;99.90
4910;DHT22;2470;49.868;8.660;2023-04-02T16:16:29;8.70;99.90
4910;DHT22;2470;49.868;8.660;2023-04-02T16:24:14;8.50;99.90
4910;DHT22;2470;49.868;8.660;2023-04-02T16:35:19;8.50;99.90
4910;DHT22;2470;49.868;8.660;2023-04-02T16:38:04;8.50;99.90
4910;DHT22;2470;49.868;8.660;2023-04-02T16:43:44;8.40;99.90
4910;DHT22;2470;49.868;8.660;2023-04-02T16:46:35;8.40;99.90
4910;DHT22;2470;49.868;8.660;2023-04-02T16:49:19;8.40;99.90
4910;DHT22;2470;49.868;8.660;2023-04-02T16:52:15;8.40;99.90
4910;DHT22;2470;49.868;8.660;2023-04-02T17:02:59;8.20;99.90
4910;DHT22;2470;49.868;8.660;2023-04-02T17:08:29;8.20;99.90
4910;DHT22;2470;49.868;8.660;2023-04-02T17:11:15;8.20;99.90
4910;DHT22;2470;49.868;8.660;2023-04-02T17:13:56;8.20;99.90
4910;DHT22;2470;49.868;8.660;2023-04-02T17:16:59;8.20;99.90
4910;DHT22;2470;49.868;8.660;2023-04-02T17:19:26;8.10;99.90
4910;DHT22;2470;49.868;8.660;2023-04-02T17:21:57;8.10;99.90
4910;DHT22;2470;49.868;8.660;2023-04-02T17:27:24;8.00;99.90
4910;DHT22;2470;49.868;8.660;2023-04-02T17:29:52;8.00;99.90
4910;DHT22;2470;49.868;8.660;2023-04-02T17:32:26;8.00;99.90
4910;DHT22;2470;49.868;8.660;2023-04-02T17:34:52;8.00;99.90
4910;DHT22;2470;49.868;8.660;2023-04-02T17:42:51;8.00;99.90
4910;DHT22;2470;49.868;8.660;2023-04-02T17:45:41;7.90;99.90
4910;DHT22;2470;49.868;8.660;2023-04-02T17:48:26;7.90;99.90
4910;DHT22;2470;49.868;8.660;2023-04-02T17:51:13;7.80;99.90
4910;DHT22;2470;49.868;8.660;2023-04-02T17:54:00;7.80;99.90
4910;DHT22;2470;49.868;8.660;2023-04-02T17:56:39;7.80;99.90
4910;DHT22;2470;49.868;8.660;2023-04-02T18:02:01;7.80;99.90
4910;DHT22;2470;49.868;8.660;2023-04-02T18:04:39;7.80;99.90
4910;DHT22;2470;49.868;8.660;2023-04-02T18:12:54;7.70;99.90
4910;DHT22;2470;49.868;8.660;2023-04-02T18:23:24;7.70;99.90
4910;DHT22;2470;49.868;8.660;2023-04-02T18:26:13;7.70;99.90
4910;DHT22;2470;49.868;8.660;2023-04-02T18:31:49;7.60;99.90
4910;DHT22;2470;49.868;8.660;2023-04-02T18:40:57;7.60;99.90
4910;DHT22;2470;49.868;8.660;2023-04-02T18:48:42;7.60;99.90
4910;DHT22;2470;49.868;8.660;2023-04-02T18:51:15;7.50;99.90
4910;DHT22;2470;49.868;8.660;2023-04-02T18:53:43;7.50;99.90
4910;DHT22;2470;49.868;8.660;2023-04-02T18:56:16;7.50;99.90
4910;DHT22;2470;49.868;8.660;2023-04-02T18:59:09;7.40;99.90
4910;DHT22;2470;49.868;8.660;2023-04-02T19:01:43;7.40;99.90
4910;DHT22;2470;49.868;8.660;2023-04-02T19:04:16;7.50;99.90
4910;DHT22;2470;49.868;8.660;2023-04-02T19:06:50;7.50;99.90
4910;DHT22;2470;49.868;8.660;2023-04-02T19:09:30;7.50;99.90
4910;DHT22;2470;49.868;8.660;2023-04-02T19:11:58;7.50;99.90
4910;DHT22;2470;49.868;8.660;2023-04-02T19:14:23;7.50;99.90
4910;DHT22;2470;49.868;8.660;2023-04-02T19:17:16;7.50;99.90
4910;DHT22;2470;49.868;8.660;2023-04-02T19:28:32;7.40;99.90
4910;DHT22;2470;49.868;8.660;2023-04-02T19:31:17;7.40;99.90
4910;DHT22;2470;49.868;8.660;2023-04-02T19:33:51;7.50;99.90
4910;DHT22;2470;49.868;8.660;2023-04-02T19:39:26;7.40;99.90
4910;DHT22;2470;49.868;8.660;2023-04-02T19:42:09;7.40;99.90
4910;DHT22;2470;49.868;8.660;2023-04-02T19:44:42;7.40;99.90
4910;DHT22;2470;49.868;8.660;2023-04-02T19:47:09;7.40;99.90
4910;DHT22;2470;49.868;8.660;2023-04-02T19:49:35;7.40;99.90
4910;DHT22;2470;49.868;8.660;2023-04-02T19:52:01;7.40;99.90
4910;DHT22;2470;49.868;8.660;2023-04-02T19:54:27;7.40;99.90
4910;DHT22;2470;49.868;8.660;2023-04-02T19:56:52;7.40;99.90
4910;DHT22;2470;49.868;8.660;2023-04-02T19:59:18;7.40;99.90
4910;DHT22;2470;49.868;8.660;2023-04-02T20:01:43;7.40;99.90
4910;DHT22;2470;49.868;8.660;2023-04-02T20:04:09;7.40;99.90
4910;DHT22;2470;49.868;8.660;2023-04-02T20:06:34;7.30;99.90
4910;DHT22;2470;49.868;8.660;2023-04-02T20:09:00;7.30;99.90
4910;DHT22;2470;49.868;8.660;2023-04-02T20:11:26;7.30;99.90
4910;DHT22;2470;49.868;8.660;2023-04-02T20:13:53;7.40;99.90
4910;DHT22;2470;49.868;8.660;2023-04-02T20:16:20;7.40;99.90
4910;DHT22;2470;49.868;8.660;2023-04-02T20:18:47;7.30;99.90
4910;DHT22;2470;49.868;8.660;2023-04-02T20:21:12;7.40;99.90
4910;DHT22;2470;49.868;8.660;2023-04-02T20:23:38;7.40;99.90
4910;DHT22;2470;49.868;8.660;2023-04-02T20:26:05;7.40;99.90
4910;DHT22;2470;49.868;8.660;2023-04-02T20:28:31;7.30;99.90
4910;DHT22;2470;49.868;8.660;2023-04-02T20:31:14;7.30;99.90
4910;DHT22;2470;49.868;8.660;2023-04-02T20:33:40;7.40;99.90
4910;DHT22;2470;49.868;8.660;2023-04-02T20:36:11;7.30;99.90
4910;DHT22;2470;49.868;8.660;2023-04-02T20:38:37;7.40;99.90
4910;DHT22;2470;49.868;8.660;2023-04-02T20:41:04;7.40;99.90
4910;DHT22;2470;49.868;8.660;2023-04-02T20:43:30;7.40;99.90
4910;DHT22;2470;49.868;8.660;2023-04-02T20:46:01;7.40;99.90
4910;DHT22;2470;49.868;8.660;2023-04-02T20:48:28;7.40;99.90
4910;DHT22;2470;49.868;8.660;2023-04-02T20:50:58;7.40;99.90
4910;DHT22;2470;49.868;8.660;2023-04-02T20:53:25;7.40;99.90
4910;DHT22;2470;49.868;8.660;2023-04-02T20:55:52;7.40;99.90
4910;DHT22;2470;49.868;8.660;2023-04-02T20:58:25;7.40;99.90
4910;DHT22;2470;49.868;8.660;2023-04-02T21:00:50;7.40;99.90
4910;DHT22;2470;49.868;8.660;2023-04-02T21:03:16;7.40;99.90